sensor_id;sensor_type;location;lat;lon;timestamp;pressure;altitude;pressure_sealevel;temperature;humidity
61761;BME280;47664;51.660;-0.100;2023-01-28T00:00:34;102461.84;;;4.13;53.22
61761;BME280;47664;51.660;-0.100;2023-01-28T00:03:07;102460.29;;;4.45;52.32
61761;BME280;47664;51.660;-0.100;2023-01-28T00:05:39;102465.90;;;3.94;52.18
61761;BME280;47664;51.660;-0.100;2023-01-28T00:08:11;102465.97;;;4.43;52.68
61761;BME280;47664;51.660;-0.100;2023-01-28T00:10:43;102469.55;;;4.08;52.82
61761;BME280;47664;51.660;-0.100;2023-01-28T00:13:17;102474.69;;;4.78;52.91
61761;BME280;47664;51.660;-0.100;2023-01-28T00:15:53;102474.33;;;3.98;53.16
61761;BME280;47664;51.660;-0.100;2023-01-28T00:18:26;102469.16;;;4.08;52.95
61761;BME280;47664;51.660;-0.100;2023-01-28T00:20:57;102471.21;;;4.24;53.16
61761;BME280;47664;51.660;-0.100;2023-01-28T00:23:30;102470.88;;;3.72;53.04
61761;BME280;47664;51.660;-0.100;2023-01-28T00:26:04;102471.53;;;4.71;52.65
61761;BME280;47664;51.660;-0.100;2023-01-28T00:28:37;102473.11;;;4.23;52.92
61761;BME280;47664;51.660;-0.100;2023-01-28T00:31:12;102475.68;;;4.53;53.30
61761;BME280;47664;51.660;-0.100;2023-01-28T00:33:46;102474.55;;;3.58;53.90
61761;BME280;47664;51.660;-0.100;2023-01-28T00:36:20;102474.83;;;3.90;53.73
61761;BME280;47664;51.660;-0.100;2023-01-28T00:38:55;102474.69;;;4.32;53.38
61761;BME280;47664;51.660;-0.100;2023-01-28T00:41:29;102467.07;;;3.91;53.01
61761;BME280;47664;51.660;-0.100;2023-01-28T00:44:01;102464.52;;;3.98;53.47
61761;BME280;47664;51.660;-0.100;2023-01-28T00:46:33;102464.55;;;3.64;53.39
61761;BME280;47664;51.660;-0.100;2023-01-28T00:49:06;102463.59;;;4.00;53.40
61761;BME280;47664;51.660;-0.100;2023-01-28T00:51:38;102464.08;;;4.14;53.31
61761;BME280;47664;51.660;-0.100;2023-01-28T00:54:11;102460.22;;;4.42;53.48
61761;BME280;47664;51.660;-0.100;2023-01-28T00:56:42;102460.38;;;3.33;54.31
61761;BME280;47664;51.660;-0.100;2023-01-28T00:59:15;102458.24;;;3.84;54.75
61761;BME280;47664;51.660;-0.100;2023-01-28T01:01:48;102457.81;;;3.67;54.63
61761;BME280;47664;51.660;-0.100;2023-01-28T01:04:21;102459.82;;;4.15;54.18
61761;BME280;47664;51.660;-0.100;2023-01-28T01:06:53;102460.97;;;4.34;53.69
61761;BME280;47664;51.660;-0.100;2023-01-28T01:09:25;102463.18;;;4.51;53.06
61761;BME280;47664;51.660;-0.100;2023-01-28T01:11:58;102459.73;;;4.50;52.79
61761;BME280;47664;51.660;-0.100;2023-01-28T01:14:29;102462.36;;;4.63;52.70
61761;BME280;47664;51.660;-0.100;2023-01-28T01:17:02;102471.99;;;4.28;52.73
61761;BME280;47664;51.660;-0.100;2023-01-28T01:19:35;102474.94;;;3.87;52.87
61761;BME280;47664;51.660;-0.100;2023-01-28T01:22:08;102461.80;;;3.90;54.09
61761;BME280;47664;51.660;-0.100;2023-01-28T01:24:40;102459.09;;;4.05;54.11
61761;BME280;47664;51.660;-0.100;2023-01-28T01:27:12;102459.71;;;4.31;53.46
61761;BME280;47664;51.660;-0.100;2023-01-28T01:29:44;102461.29;;;4.39;52.81
61761;BME280;47664;51.660;-0.100;2023-01-28T01:32:17;102461.94;;;4.77;52.20
61761;BME280;47664;51.660;-0.100;2023-01-28T01:34:49;102461.20;;;4.62;51.72
61761;BME280;47664;51.660;-0.100;2023-01-28T01:37:21;102464.00;;;4.39;52.64
61761;BME280;47664;51.660;-0.100;2023-01-28T01:39:53;102458.85;;;4.45;52.73
61761;BME280;47664;51.660;-0.100;2023-01-28T01:42:26;102455.80;;;4.09;53.00
61761;BME280;47664;51.660;-0.100;2023-01-28T01:45:03;102457.89;;;4.01;53.35
61761;BME280;47664;51.660;-0.100;2023-01-28T01:47:35;102454.25;;;3.83;53.45
61761;BME280;47664;51.660;-0.100;2023-01-28T01:50:12;102451.08;;;4.27;53.48
61761;BME280;47664;51.660;-0.100;2023-01-28T01:52:50;102456.74;;;4.01;53.82
61761;BME280;47664;51.660;-0.100;2023-01-28T01:55:26;102461.51;;;3.86;54.44
61761;BME280;47664;51.660;-0.100;2023-01-28T01:58:02;102461.26;;;3.96;55.00
61761;BME280;47664;51.660;-0.100;2023-01-28T02:00:36;102459.75;;;3.62;54.89
61761;BME280;47664;51.660;-0.100;2023-01-28T02:03:09;102460.66;;;3.95;55.07
61761;BME280;47664;51.660;-0.100;2023-01-28T02:05:42;102460.23;;;3.75;55.24
61761;BME280;47664;51.660;-0.100;2023-01-28T02:08:15;102461.28;;;4.44;54.46
61761;BME280;47664;51.660;-0.100;2023-01-28T02:10:48;102461.24;;;4.50;54.12
61761;BME280;47664;51.660;-0.100;2023-01-28T02:13:24;102462.85;;;4.52;53.50
61761;BME280;47664;51.660;-0.100;2023-01-28T02:15:58;102464.28;;;4.47;53.40
61761;BME280;47664;51.660;-0.100;2023-01-28T02:18:31;102466.37;;;4.24;53.23
61761;BME280;47664;51.660;-0.100;2023-01-28T02:21:15;102463.06;;;4.91;52.73
61761;BME280;47664;51.660;-0.100;2023-01-28T02:23:59;102466.72;;;4.70;52.79
61761;BME280;47664;51.660;-0.100;2023-01-28T02:26:47;102468.54;;;4.16;53.19
61761;BME280;47664;51.660;-0.100;2023-01-28T02:29:24;102461.55;;;4.60;52.91
61761;BME280;47664;51.660;-0.100;2023-01-28T02:31:59;102461.14;;;4.43;52.67
61761;BME280;47664;51.660;-0.100;2023-01-28T02:34:35;102458.51;;;4.48;52.57
61761;BME280;47664;51.660;-0.100;2023-01-28T02:37:08;102461.77;;;4.75;52.36
61761;BME280;47664;51.660;-0.100;2023-01-28T02:39:42;102461.21;;;4.95;52.63
61761;BME280;47664;51.660;-0.100;2023-01-28T02:42:14;102465.47;;;4.55;53.04
61761;BME280;47664;51.660;-0.100;2023-01-28T02:44:49;102464.58;;;4.48;52.88
61761;BME280;47664;51.660;-0.100;2023-01-28T02:47:22;102464.27;;;4.47;53.15
61761;BME280;47664;51.660;-0.100;2023-01-28T02:49:56;102470.16;;;4.16;54.18
61761;BME280;47664;51.660;-0.100;2023-01-28T02:52:33;102471.51;;;3.95;53.83
61761;BME280;47664;51.660;-0.100;2023-01-28T02:55:10;102474.14;;;4.29;53.87
61761;BME280;47664;51.660;-0.100;2023-01-28T02:57:47;102468.51;;;4.18;53.57
61761;BME280;47664;51.660;-0.100;2023-01-28T03:00:24;102475.76;;;4.25;53.73
61761;BME280;47664;51.660;-0.100;2023-01-28T03:03:06;102479.47;;;4.22;53.72
61761;BME280;47664;51.660;-0.100;2023-01-28T03:05:42;102482.02;;;4.29;53.47
61761;BME280;47664;51.660;-0.100;2023-01-28T03:08:16;102480.75;;;4.13;54.05
61761;BME280;47664;51.660;-0.100;2023-01-28T03:10:48;102484.28;;;3.76;54.16
61761;BME280;47664;51.660;-0.100;2023-01-28T03:13:22;102486.02;;;3.51;54.92
61761;BME280;47664;51.660;-0.100;2023-01-28T03:15:54;102483.21;;;3.59;54.39
61761;BME280;47664;51.660;-0.100;2023-01-28T03:18:29;102488.71;;;3.20;54.65
61761;BME280;47664;51.660;-0.100;2023-01-28T03:21:04;102490.48;;;3.62;54.44
61761;BME280;47664;51.660;-0.100;2023-01-28T03:23:38;102488.00;;;3.72;53.48
61761;BME280;47664;51.660;-0.100;2023-01-28T03:26:13;102493.22;;;4.07;53.18
61761;BME280;47664;51.660;-0.100;2023-01-28T03:28:47;102492.61;;;4.13;52.50
61761;BME280;47664;51.660;-0.100;2023-01-28T03:31:22;102490.60;;;4.36;52.23
61761;BME280;47664;51.660;-0.100;2023-01-28T03:33:57;102490.57;;;4.15;52.23
61761;BME280;47664;51.660;-0.100;2023-01-28T03:36:31;102492.01;;;3.63;52.63
61761;BME280;47664;51.660;-0.100;2023-01-28T03:39:03;102496.04;;;3.97;52.96
61761;BME280;47664;51.660;-0.100;2023-01-28T03:41:35;102500.06;;;4.01;52.73
61761;BME280;47664;51.660;-0.100;2023-01-28T03:44:07;102501.05;;;4.29;52.21
61761;BME280;47664;51.660;-0.100;2023-01-28T03:46:39;102499.44;;;4.16;52.03
61761;BME280;47664;51.660;-0.100;2023-01-28T03:49:12;102497.87;;;4.09;52.22
61761;BME280;47664;51.660;-0.100;2023-01-28T03:51:44;102501.46;;;4.36;51.73
61761;BME280;47664;51.660;-0.100;2023-01-28T03:54:17;102508.39;;;3.75;52.63
61761;BME280;47664;51.660;-0.100;2023-01-28T03:56:49;102514.88;;;3.65;53.15
61761;BME280;47664;51.660;-0.100;2023-01-28T03:59:22;102513.52;;;3.70;53.48
61761;BME280;47664;51.660;-0.100;2023-01-28T04:01:54;102507.07;;;3.89;53.93
61761;BME280;47664;51.660;-0.100;2023-01-28T04:04:26;102502.15;;;3.75;53.94
61761;BME280;47664;51.660;-0.100;2023-01-28T04:06:59;102498.41;;;3.22;54.95
61761;BME280;47664;51.660;-0.100;2023-01-28T04:09:31;102500.77;;;2.64;55.25
61761;BME280;47664;51.660;-0.100;2023-01-28T04:12:03;102508.04;;;3.60;54.38
61761;BME280;47664;51.660;-0.100;2023-01-28T04:14:36;102503.33;;;3.59;53.60
61761;BME280;47664;51.660;-0.100;2023-01-28T04:17:09;102505.31;;;3.98;52.14
61761;BME280;47664;51.660;-0.100;2023-01-28T04:19:40;102504.67;;;4.21;51.81
61761;BME280;47664;51.660;-0.100;2023-01-28T04:22:10;102503.75;;;4.26;51.59
61761;BME280;47664;51.660;-0.100;2023-01-28T04:24:42;102504.77;;;4.43;51.32
61761;BME280;47664;51.660;-0.100;2023-01-28T04:27:14;102507.37;;;4.61;50.85
61761;BME280;47664;51.660;-0.100;2023-01-28T04:29:47;102513.72;;;4.11;51.48
61761;BME280;47664;51.660;-0.100;2023-01-28T04:32:19;102513.43;;;4.16;52.50
61761;BME280;47664;51.660;-0.100;2023-01-28T04:34:51;102509.18;;;3.62;53.27
61761;BME280;47664;51.660;-0.100;2023-01-28T04:37:24;102502.61;;;4.21;52.83
61761;BME280;47664;51.660;-0.100;2023-01-28T04:39:57;102508.02;;;3.83;52.83
61761;BME280;47664;51.660;-0.100;2023-01-28T04:42:29;102503.49;;;3.79;52.07
61761;BME280;47664;51.660;-0.100;2023-01-28T04:45:02;102501.12;;;4.33;51.59
61761;BME280;47664;51.660;-0.100;2023-01-28T04:47:34;102492.46;;;4.01;50.72
61761;BME280;47664;51.660;-0.100;2023-01-28T04:50:06;102495.93;;;4.55;51.12
61761;BME280;47664;51.660;-0.100;2023-01-28T04:52:39;102500.67;;;4.31;51.19
61761;BME280;47664;51.660;-0.100;2023-01-28T04:55:11;102499.18;;;4.52;50.33
61761;BME280;47664;51.660;-0.100;2023-01-28T04:57:43;102490.06;;;4.86;49.79
61761;BME280;47664;51.660;-0.100;2023-01-28T05:00:18;102485.56;;;5.09;50.28
61761;BME280;47664;51.660;-0.100;2023-01-28T05:02:50;102489.07;;;4.35;49.89
61761;BME280;47664;51.660;-0.100;2023-01-28T05:05:23;102482.61;;;4.62;49.85
61761;BME280;47664;51.660;-0.100;2023-01-28T05:07:56;102489.46;;;4.50;50.18
61761;BME280;47664;51.660;-0.100;2023-01-28T05:10:29;102490.68;;;3.94;49.24
61761;BME280;47664;51.660;-0.100;2023-01-28T05:13:01;102490.96;;;4.95;48.62
61761;BME280;47664;51.660;-0.100;2023-01-28T05:15:33;102489.27;;;5.03;49.38
61761;BME280;47664;51.660;-0.100;2023-01-28T05:18:05;102481.60;;;4.82;49.12
61761;BME280;47664;51.660;-0.100;2023-01-28T05:20:38;102480.82;;;4.67;49.88
61761;BME280;47664;51.660;-0.100;2023-01-28T05:23:09;102495.76;;;4.93;49.21
61761;BME280;47664;51.660;-0.100;2023-01-28T05:25:42;102491.51;;;4.43;49.37
61761;BME280;47664;51.660;-0.100;2023-01-28T05:28:14;102487.55;;;4.95;48.52
61761;BME280;47664;51.660;-0.100;2023-01-28T05:30:46;102486.99;;;4.72;48.99
61761;BME280;47664;51.660;-0.100;2023-01-28T05:33:18;102488.78;;;4.80;49.26
61761;BME280;47664;51.660;-0.100;2023-01-28T05:35:50;102485.99;;;4.99;48.38
61761;BME280;47664;51.660;-0.100;2023-01-28T05:38:23;102484.90;;;4.99;47.70
61761;BME280;47664;51.660;-0.100;2023-01-28T05:40:56;102482.09;;;4.79;48.45
61761;BME280;47664;51.660;-0.100;2023-01-28T05:43:28;102482.15;;;3.93;49.88
61761;BME280;47664;51.660;-0.100;2023-01-28T05:46:00;102485.07;;;3.81;51.32
61761;BME280;47664;51.660;-0.100;2023-01-28T05:48:32;102483.65;;;3.11;51.37
61761;BME280;47664;51.660;-0.100;2023-01-28T05:51:04;102485.05;;;3.88;50.93
61761;BME280;47664;51.660;-0.100;2023-01-28T05:53:36;102492.70;;;3.95;50.21
61761;BME280;47664;51.660;-0.100;2023-01-28T05:56:09;102492.41;;;4.14;50.46
61761;BME280;47664;51.660;-0.100;2023-01-28T05:58:41;102496.49;;;3.69;51.24
61761;BME280;47664;51.660;-0.100;2023-01-28T06:01:13;102500.85;;;3.82;51.47
61761;BME280;47664;51.660;-0.100;2023-01-28T06:03:45;102499.87;;;3.74;51.47
61761;BME280;47664;51.660;-0.100;2023-01-28T06:06:18;102500.50;;;3.95;51.69
61761;BME280;47664;51.660;-0.100;2023-01-28T06:08:50;102505.03;;;3.94;51.37
61761;BME280;47664;51.660;-0.100;2023-01-28T06:11:22;102502.79;;;4.22;50.27
61761;BME280;47664;51.660;-0.100;2023-01-28T06:13:54;102500.06;;;4.20;50.86
61761;BME280;47664;51.660;-0.100;2023-01-28T06:16:26;102506.90;;;3.93;50.33
61761;BME280;47664;51.660;-0.100;2023-01-28T06:18:59;102503.68;;;4.00;50.48
61761;BME280;47664;51.660;-0.100;2023-01-28T06:21:31;102499.63;;;3.73;49.58
61761;BME280;47664;51.660;-0.100;2023-01-28T06:24:03;102506.31;;;3.80;51.00
61761;BME280;47664;51.660;-0.100;2023-01-28T06:26:36;102509.22;;;3.57;51.87
61761;BME280;47664;51.660;-0.100;2023-01-28T06:29:08;102513.06;;;4.07;51.84
61761;BME280;47664;51.660;-0.100;2023-01-28T06:31:40;102509.65;;;3.78;51.47
61761;BME280;47664;51.660;-0.100;2023-01-28T06:34:13;102509.58;;;4.21;51.10
61761;BME280;47664;51.660;-0.100;2023-01-28T06:36:45;102511.73;;;3.97;50.65
61761;BME280;47664;51.660;-0.100;2023-01-28T06:39:18;102511.06;;;4.62;49.23
61761;BME280;47664;51.660;-0.100;2023-01-28T06:41:50;102514.19;;;3.84;50.08
61761;BME280;47664;51.660;-0.100;2023-01-28T06:44:22;102517.06;;;4.27;50.37
61761;BME280;47664;51.660;-0.100;2023-01-28T06:46:54;102515.76;;;4.21;50.54
61761;BME280;47664;51.660;-0.100;2023-01-28T06:49:27;102517.42;;;4.19;50.36
61761;BME280;47664;51.660;-0.100;2023-01-28T06:51:59;102517.00;;;4.46;49.76
61761;BME280;47664;51.660;-0.100;2023-01-28T06:54:31;102515.90;;;4.24;49.73
61761;BME280;47664;51.660;-0.100;2023-01-28T06:57:03;102508.93;;;4.68;48.81
61761;BME280;47664;51.660;-0.100;2023-01-28T06:59:35;102510.18;;;4.80;49.08
61761;BME280;47664;51.660;-0.100;2023-01-28T07:02:08;102514.96;;;4.30;50.96
61761;BME280;47664;51.660;-0.100;2023-01-28T07:04:40;102514.92;;;3.41;51.90
61761;BME280;47664;51.660;-0.100;2023-01-28T07:07:13;102517.34;;;4.17;51.88
61761;BME280;47664;51.660;-0.100;2023-01-28T07:09:45;102519.37;;;4.05;51.65
61761;BME280;47664;51.660;-0.100;2023-01-28T07:12:17;102519.00;;;3.99;51.52
61761;BME280;47664;51.660;-0.100;2023-01-28T07:14:49;102522.46;;;3.88;51.62
61761;BME280;47664;51.660;-0.100;2023-01-28T07:17:21;102524.41;;;4.10;51.90
61761;BME280;47664;51.660;-0.100;2023-01-28T07:19:53;102518.26;;;4.17;51.03
61761;BME280;47664;51.660;-0.100;2023-01-28T07:22:26;102518.22;;;4.35;50.99
61761;BME280;47664;51.660;-0.100;2023-01-28T07:24:58;102520.25;;;4.33;50.49
61761;BME280;47664;51.660;-0.100;2023-01-28T07:27:31;102521.12;;;3.80;50.78
61761;BME280;47664;51.660;-0.100;2023-01-28T07:30:03;102519.80;;;3.89;51.06
61761;BME280;47664;51.660;-0.100;2023-01-28T07:32:35;102517.49;;;4.00;51.22
61761;BME280;47664;51.660;-0.100;2023-01-28T07:35:07;102518.35;;;4.07;52.42
61761;BME280;47664;51.660;-0.100;2023-01-28T07:37:40;102517.53;;;3.87;51.53
61761;BME280;47664;51.660;-0.100;2023-01-28T07:40:12;102518.22;;;4.30;50.35
61761;BME280;47664;51.660;-0.100;2023-01-28T07:42:45;102517.90;;;4.35;50.37
61761;BME280;47664;51.660;-0.100;2023-01-28T07:45:18;102525.85;;;3.83;49.91
61761;BME280;47664;51.660;-0.100;2023-01-28T07:47:53;102529.44;;;3.72;51.21
61761;BME280;47664;51.660;-0.100;2023-01-28T07:50:26;102534.31;;;3.17;53.14
61761;BME280;47664;51.660;-0.100;2023-01-28T07:53:01;102538.62;;;2.93;52.97
61761;BME280;47664;51.660;-0.100;2023-01-28T07:55:34;102531.06;;;3.45;52.29
61761;BME280;47664;51.660;-0.100;2023-01-28T07:58:09;102531.04;;;3.48;51.36
61761;BME280;47664;51.660;-0.100;2023-01-28T08:00:43;102526.02;;;3.86;51.00
61761;BME280;47664;51.660;-0.100;2023-01-28T08:03:17;102526.55;;;3.99;50.54
61761;BME280;47664;51.660;-0.100;2023-01-28T08:05:50;102529.95;;;4.28;50.73
61761;BME280;47664;51.660;-0.100;2023-01-28T08:08:24;102534.09;;;4.58;49.88
61761;BME280;47664;51.660;-0.100;2023-01-28T08:10:57;102532.46;;;3.95;50.46
61761;BME280;47664;51.660;-0.100;2023-01-28T08:13:29;102531.07;;;4.02;49.98
61761;BME280;47664;51.660;-0.100;2023-01-28T08:16:01;102531.47;;;3.75;50.83
61761;BME280;47664;51.660;-0.100;2023-01-28T08:18:34;102528.87;;;4.34;51.02
61761;BME280;47664;51.660;-0.100;2023-01-28T08:21:07;102522.43;;;4.04;50.96
61761;BME280;47664;51.660;-0.100;2023-01-28T08:23:39;102521.23;;;3.93;50.57
61761;BME280;47664;51.660;-0.100;2023-01-28T08:26:11;102522.40;;;4.19;50.11
61761;BME280;47664;51.660;-0.100;2023-01-28T08:28:43;102521.54;;;4.10;50.72
61761;BME280;47664;51.660;-0.100;2023-01-28T08:31:15;102521.72;;;4.23;50.46
61761;BME280;47664;51.660;-0.100;2023-01-28T08:33:47;102517.67;;;4.41;49.95
61761;BME280;47664;51.660;-0.100;2023-01-28T08:36:19;102517.32;;;4.26;49.99
61761;BME280;47664;51.660;-0.100;2023-01-28T08:38:50;102524.08;;;4.46;49.59
61761;BME280;47664;51.660;-0.100;2023-01-28T08:41:22;102523.37;;;4.01;51.32
61761;BME280;47664;51.660;-0.100;2023-01-28T08:43:55;102524.41;;;3.92;50.69
61761;BME280;47664;51.660;-0.100;2023-01-28T08:46:27;102526.56;;;3.84;51.19
61761;BME280;47664;51.660;-0.100;2023-01-28T08:48:59;102534.46;;;4.17;51.14
61761;BME280;47664;51.660;-0.100;2023-01-28T08:51:31;102538.38;;;3.25;51.14
61761;BME280;47664;51.660;-0.100;2023-01-28T08:54:03;102538.88;;;3.34;51.42
61761;BME280;47664;51.660;-0.100;2023-01-28T08:56:35;102543.01;;;3.59;51.92
61761;BME280;47664;51.660;-0.100;2023-01-28T08:59:07;102548.87;;;3.70;52.45
61761;BME280;47664;51.660;-0.100;2023-01-28T09:01:39;102551.38;;;3.34;52.00
61761;BME280;47664;51.660;-0.100;2023-01-28T09:04:11;102549.59;;;4.36;50.91
61761;BME280;47664;51.660;-0.100;2023-01-28T09:06:43;102548.94;;;4.19;50.74
61761;BME280;47664;51.660;-0.100;2023-01-28T09:09:15;102557.49;;;3.49;52.08
61761;BME280;47664;51.660;-0.100;2023-01-28T09:11:47;102558.29;;;3.75;51.64
61761;BME280;47664;51.660;-0.100;2023-01-28T09:14:19;102557.11;;;3.83;50.51
61761;BME280;47664;51.660;-0.100;2023-01-28T09:16:51;102559.51;;;3.45;51.86
61761;BME280;47664;51.660;-0.100;2023-01-28T09:19:24;102562.50;;;3.94;52.46
61761;BME280;47664;51.660;-0.100;2023-01-28T09:21:56;102571.99;;;4.02;52.10
61761;BME280;47664;51.660;-0.100;2023-01-28T09:24:28;102571.84;;;3.85;52.24
61761;BME280;47664;51.660;-0.100;2023-01-28T09:27:01;102573.41;;;3.86;52.18
61761;BME280;47664;51.660;-0.100;2023-01-28T09:29:33;102579.24;;;3.95;52.12
61761;BME280;47664;51.660;-0.100;2023-01-28T09:32:05;102576.73;;;4.16;52.31
61761;BME280;47664;51.660;-0.100;2023-01-28T09:34:37;102573.13;;;3.69;51.98
61761;BME280;47664;51.660;-0.100;2023-01-28T09:37:09;102575.32;;;4.20;51.75
61761;BME280;47664;51.660;-0.100;2023-01-28T09:39:42;102577.00;;;4.05;51.91
61761;BME280;47664;51.660;-0.100;2023-01-28T09:42:26;102570.46;;;4.59;50.41
61761;BME280;47664;51.660;-0.100;2023-01-28T09:45:02;102564.92;;;4.12;51.23
61761;BME280;47664;51.660;-0.100;2023-01-28T09:47:40;102564.42;;;3.78;51.23
61761;BME280;47664;51.660;-0.100;2023-01-28T09:50:16;102565.50;;;4.70;51.13
61761;BME280;47664;51.660;-0.100;2023-01-28T09:52:50;102566.87;;;4.53;50.09
61761;BME280;47664;51.660;-0.100;2023-01-28T09:55:28;102561.33;;;4.90;49.86
61761;BME280;47664;51.660;-0.100;2023-01-28T09:58:03;102559.14;;;4.70;49.86
61761;BME280;47664;51.660;-0.100;2023-01-28T10:00:37;102571.31;;;4.03;50.51
61761;BME280;47664;51.660;-0.100;2023-01-28T10:03:27;102572.94;;;4.08;51.69
61761;BME280;47664;51.660;-0.100;2023-01-28T10:06:06;102565.41;;;3.84;52.82
61761;BME280;47664;51.660;-0.100;2023-01-28T10:09:32;102569.49;;;3.84;52.73
61761;BME280;47664;51.660;-0.100;2023-01-28T10:12:20;102564.39;;;4.31;52.78
61761;BME280;47664;51.660;-0.100;2023-01-28T10:15:01;102563.30;;;4.15;52.14
61761;BME280;47664;51.660;-0.100;2023-01-28T10:17:35;102559.90;;;4.01;51.69
61761;BME280;47664;51.660;-0.100;2023-01-28T10:20:13;102563.35;;;4.56;51.67
61761;BME280;47664;51.660;-0.100;2023-01-28T10:22:50;102559.05;;;4.80;51.46
61761;BME280;47664;51.660;-0.100;2023-01-28T10:25:27;102561.87;;;5.09;51.13
61761;BME280;47664;51.660;-0.100;2023-01-28T10:28:01;102561.83;;;5.41;50.85
61761;BME280;47664;51.660;-0.100;2023-01-28T10:30:35;102562.70;;;4.88;49.49
61761;BME280;47664;51.660;-0.100;2023-01-28T10:33:12;102559.80;;;4.84;50.29
61761;BME280;47664;51.660;-0.100;2023-01-28T10:35:47;102547.51;;;5.16;50.19
61761;BME280;47664;51.660;-0.100;2023-01-28T10:38:23;102530.26;;;5.48;50.27
61761;BME280;47664;51.660;-0.100;2023-01-28T10:40:57;102533.58;;;5.30;49.28
61761;BME280;47664;51.660;-0.100;2023-01-28T10:43:30;102543.36;;;5.26;49.17
61761;BME280;47664;51.660;-0.100;2023-01-28T10:46:04;102534.93;;;5.16;48.81
61761;BME280;47664;51.660;-0.100;2023-01-28T10:48:40;102527.61;;;4.97;49.75
61761;BME280;47664;51.660;-0.100;2023-01-28T10:51:14;102515.23;;;5.59;49.09
61761;BME280;47664;51.660;-0.100;2023-01-28T10:53:47;102513.92;;;5.63;48.38
61761;BME280;47664;51.660;-0.100;2023-01-28T10:56:22;102510.01;;;5.75;48.29
61761;BME280;47664;51.660;-0.100;2023-01-28T10:58:57;102503.84;;;5.68;47.95
61761;BME280;47664;51.660;-0.100;2023-01-28T11:01:38;102497.38;;;5.92;47.58
61761;BME280;47664;51.660;-0.100;2023-01-28T11:04:15;102489.37;;;5.63;47.43
61761;BME280;47664;51.660;-0.100;2023-01-28T11:06:52;102481.79;;;5.92;47.23
61761;BME280;47664;51.660;-0.100;2023-01-28T11:09:26;102478.57;;;5.75;47.80
61761;BME280;47664;51.660;-0.100;2023-01-28T11:12:09;102470.22;;;5.84;47.79
61761;BME280;47664;51.660;-0.100;2023-01-28T11:14:49;102468.76;;;5.25;47.96
61761;BME280;47664;51.660;-0.100;2023-01-28T11:17:23;102469.45;;;5.75;48.31
61761;BME280;47664;51.660;-0.100;2023-01-28T11:19:58;102473.26;;;5.84;47.36
61761;BME280;47664;51.660;-0.100;2023-01-28T11:22:32;102477.49;;;5.09;49.01
61761;BME280;47664;51.660;-0.100;2023-01-28T11:25:05;102478.47;;;4.93;49.31
61761;BME280;47664;51.660;-0.100;2023-01-28T11:27:46;102478.69;;;4.59;49.47
61761;BME280;47664;51.660;-0.100;2023-01-28T11:30:21;102478.25;;;4.88;50.12
61761;BME280;47664;51.660;-0.100;2023-01-28T11:32:59;102477.61;;;4.97;49.71
61761;BME280;47664;51.660;-0.100;2023-01-28T11:35:35;102476.94;;;5.46;49.97
61761;BME280;47664;51.660;-0.100;2023-01-28T11:38:13;102477.21;;;5.39;50.48
61761;BME280;47664;51.660;-0.100;2023-01-28T11:40:49;102476.77;;;5.17;49.24
61761;BME280;47664;51.660;-0.100;2023-01-28T11:43:22;102477.22;;;4.94;49.59
61761;BME280;47664;51.660;-0.100;2023-01-28T11:45:56;102481.54;;;4.96;49.53
61761;BME280;47664;51.660;-0.100;2023-01-28T11:48:34;102479.17;;;5.40;49.55
61761;BME280;47664;51.660;-0.100;2023-01-28T11:51:19;102482.16;;;5.13;48.01
61761;BME280;47664;51.660;-0.100;2023-01-28T11:53:59;102480.25;;;5.19;48.61
61761;BME280;47664;51.660;-0.100;2023-01-28T11:56:42;102487.83;;;4.84;48.14
61761;BME280;47664;51.660;-0.100;2023-01-28T11:59:24;102498.41;;;4.90;49.83
61761;BME280;47664;51.660;-0.100;2023-01-28T12:02:04;102502.11;;;4.76;50.12
61761;BME280;47664;51.660;-0.100;2023-01-28T12:04:48;102504.10;;;4.60;50.48
61761;BME280;47664;51.660;-0.100;2023-01-28T12:07:29;102500.74;;;4.78;50.14
61761;BME280;47664;51.660;-0.100;2023-01-28T12:10:09;102501.03;;;4.90;49.23
61761;BME280;47664;51.660;-0.100;2023-01-28T12:12:51;102499.04;;;4.69;49.98
61761;BME280;47664;51.660;-0.100;2023-01-28T12:15:39;102495.11;;;5.26;49.38
61761;BME280;47664;51.660;-0.100;2023-01-28T12:18:18;102489.17;;;5.30;49.60
61761;BME280;47664;51.660;-0.100;2023-01-28T12:20:55;102490.67;;;5.00;48.56
61761;BME280;47664;51.660;-0.100;2023-01-28T12:23:37;102485.45;;;5.11;48.41
61761;BME280;47664;51.660;-0.100;2023-01-28T12:26:19;102479.45;;;4.98;48.09
61761;BME280;47664;51.660;-0.100;2023-01-28T12:29:00;102482.32;;;5.45;48.09
61761;BME280;47664;51.660;-0.100;2023-01-28T12:31:43;102486.93;;;4.75;48.40
61761;BME280;47664;51.660;-0.100;2023-01-28T12:34:27;102474.83;;;5.35;49.19
61761;BME280;47664;51.660;-0.100;2023-01-28T12:37:02;102482.09;;;5.13;49.44
61761;BME280;47664;51.660;-0.100;2023-01-28T12:39:47;102484.06;;;4.62;49.22
61761;BME280;47664;51.660;-0.100;2023-01-28T12:42:25;102481.75;;;4.76;49.55
61761;BME280;47664;51.660;-0.100;2023-01-28T12:45:01;102479.46;;;4.68;50.79
61761;BME280;47664;51.660;-0.100;2023-01-28T12:47:34;102472.55;;;3.88;51.22
61761;BME280;47664;51.660;-0.100;2023-01-28T12:50:12;102467.27;;;4.42;51.85
61761;BME280;47664;51.660;-0.100;2023-01-28T12:52:49;102460.52;;;4.83;51.04
61761;BME280;47664;51.660;-0.100;2023-01-28T12:55:33;102451.70;;;5.16;50.60
61761;BME280;47664;51.660;-0.100;2023-01-28T12:58:11;102447.54;;;5.16;50.59
61761;BME280;47664;51.660;-0.100;2023-01-28T13:00:45;102446.88;;;4.57;51.06
61761;BME280;47664;51.660;-0.100;2023-01-28T13:03:20;102453.87;;;4.92;50.64
61761;BME280;47664;51.660;-0.100;2023-01-28T13:05:54;102454.21;;;4.72;51.75
61761;BME280;47664;51.660;-0.100;2023-01-28T13:08:30;102443.17;;;5.19;51.12
61761;BME280;47664;51.660;-0.100;2023-01-28T13:11:03;102440.74;;;5.43;50.54
61761;BME280;47664;51.660;-0.100;2023-01-28T13:13:37;102442.36;;;5.25;50.17
61761;BME280;47664;51.660;-0.100;2023-01-28T13:16:12;102439.37;;;5.52;50.33
61761;BME280;47664;51.660;-0.100;2023-01-28T13:18:44;102441.35;;;5.34;50.20
61761;BME280;47664;51.660;-0.100;2023-01-28T13:21:28;102436.17;;;5.78;50.57
61761;BME280;47664;51.660;-0.100;2023-01-28T13:24:06;102426.78;;;5.78;49.68
61761;BME280;47664;51.660;-0.100;2023-01-28T13:26:41;102419.33;;;5.24;50.16